sensor_id;sensor_type;location;lat;lon;timestamp;P1;durP1;ratioP1;P2;durP2;ratioP2
23358;SDS011;11851;50.796;4.372;2022-10-22T00:00:51;22.35;;;4.78;;
23358;SDS011;11851;50.796;4.372;2022-10-22T00:03:17;16.77;;;4.80;;
23358;SDS011;11851;50.796;4.372;2022-10-22T00:05:42;17.20;;;5.10;;
23358;SDS011;11851;50.796;4.372;2022-10-22T00:08:08;17.58;;;4.95;;
23358;SDS011;11851;50.796;4.372;2022-10-22T00:10:35;16.08;;;4.82;;
23358;SDS011;11851;50.796;4.372;2022-10-22T00:13:02;22.60;;;5.32;;
23358;SDS011;11851;50.796;4.372;2022-10-22T00:15:28;23.02;;;7.30;;
23358;SDS011;11851;50.796;4.372;2022-10-22T00:17:54;19.15;;;4.80;;
23358;SDS011;11851;50.796;4.372;2022-10-22T00:20:19;17.92;;;4.72;;
23358;SDS011;11851;50.796;4.372;2022-10-22T00:22:45;13.35;;;4.32;;
23358;SDS011;11851;50.796;4.372;2022-10-22T00:25:11;22.77;;;4.68;;
23358;SDS011;11851;50.796;4.372;2022-10-22T00:27:36;14.07;;;5.03;;
23358;SDS011;11851;50.796;4.372;2022-10-22T00:30:02;22.48;;;4.97;;
23358;SDS011;11851;50.796;4.372;2022-10-22T00:32:28;20.77;;;4.30;;
23358;SDS011;11851;50.796;4.372;2022-10-22T00:34:54;16.45;;;4.78;;
23358;SDS011;11851;50.796;4.372;2022-10-22T00:37:19;23.15;;;4.68;;
23358;SDS011;11851;50.796;4.372;2022-10-22T00:39:45;15.93;;;4.53;;
23358;SDS011;11851;50.796;4.372;2022-10-22T00:42:12;19.98;;;4.50;;
23358;SDS011;11851;50.796;4.372;2022-10-22T00:50:14;15.43;;;4.07;;
23358;SDS011;11851;50.796;4.372;2022-10-22T00:52:44;13.13;;;3.78;;
23358;SDS011;11851;50.796;4.372;2022-10-22T00:55:10;15.27;;;3.80;;
23358;SDS011;11851;50.796;4.372;2022-10-22T00:57:37;18.27;;;4.80;;
23358;SDS011;11851;50.796;4.372;2022-10-22T01:00:03;15.73;;;3.90;;
23358;SDS011;11851;50.796;4.372;2022-10-22T01:02:30;15.77;;;4.10;;
23358;SDS011;11851;50.796;4.372;2022-10-22T01:04:56;12.23;;;3.58;;
23358;SDS011;11851;50.796;4.372;2022-10-22T01:07:21;18.17;;;3.53;;
23358;SDS011;11851;50.796;4.372;2022-10-22T01:12:29;17.85;;;3.92;;
23358;SDS011;11851;50.796;4.372;2022-10-22T01:18:03;19.98;;;3.40;;
23358;SDS011;11851;50.796;4.372;2022-10-22T01:23:53;13.18;;;3.67;;
23358;SDS011;11851;50.796;4.372;2022-10-22T01:26:28;16.75;;;3.50;;
23358;SDS011;11851;50.796;4.372;2022-10-22T01:31:58;12.75;;;2.95;;
23358;SDS011;11851;50.796;4.372;2022-10-22T01:34:26;21.90;;;3.05;;
23358;SDS011;11851;50.796;4.372;2022-10-22T01:36:54;16.75;;;4.10;;
23358;SDS011;11851;50.796;4.372;2022-10-22T01:39:20;15.98;;;3.28;;
23358;SDS011;11851;50.796;4.372;2022-10-22T01:41:47;14.43;;;2.92;;
23358;SDS011;11851;50.796;4.372;2022-10-22T01:44:26;13.55;;;2.83;;
23358;SDS011;11851;50.796;4.372;2022-10-22T01:47:01;11.85;;;3.00;;
23358;SDS011;11851;50.796;4.372;2022-10-22T02:00:45;9.40;;;2.65;;
23358;SDS011;11851;50.796;4.372;2022-10-22T02:03:24;20.40;;;2.88;;
23358;SDS011;11851;50.796;4.372;2022-10-22T02:05:58;11.90;;;3.10;;
23358;SDS011;11851;50.796;4.372;2022-10-22T02:08:29;16.13;;;3.17;;
23358;SDS011;11851;50.796;4.372;2022-10-22T02:10:57;11.38;;;3.33;;
23358;SDS011;11851;50.796;4.372;2022-10-22T02:13:26;10.57;;;2.35;;
23358;SDS011;11851;50.796;4.372;2022-10-22T02:15:56;17.48;;;2.70;;
23358;SDS011;11851;50.796;4.372;2022-10-22T02:18:24;12.95;;;3.13;;
23358;SDS011;11851;50.796;4.372;2022-10-22T02:20:53;16.48;;;2.75;;
23358;SDS011;11851;50.796;4.372;2022-10-22T02:23:20;12.90;;;3.13;;
23358;SDS011;11851;50.796;4.372;2022-10-22T02:25:47;9.23;;;2.58;;
23358;SDS011;11851;50.796;4.372;2022-10-22T02:28:35;15.50;;;2.42;;
23358;SDS011;11851;50.796;4.372;2022-10-22T02:31:18;12.02;;;2.50;;
23358;SDS011;11851;50.796;4.372;2022-10-22T02:33:49;15.00;;;2.83;;
23358;SDS011;11851;50.796;4.372;2022-10-22T02:36:18;15.20;;;2.25;;
23358;SDS011;11851;50.796;4.372;2022-10-22T02:38:45;13.95;;;2.85;;
23358;SDS011;11851;50.796;4.372;2022-10-22T02:41:13;19.15;;;2.60;;
23358;SDS011;11851;50.796;4.372;2022-10-22T02:43:41;11.63;;;2.78;;
23358;SDS011;11851;50.796;4.372;2022-10-22T02:46:08;13.15;;;2.88;;
23358;SDS011;11851;50.796;4.372;2022-10-22T02:48:35;13.18;;;3.05;;
23358;SDS011;11851;50.796;4.372;2022-10-22T02:51:00;11.80;;;2.08;;
23358;SDS011;11851;50.796;4.372;2022-10-22T02:53:26;13.95;;;2.60;;
23358;SDS011;11851;50.796;4.372;2022-10-22T02:55:52;13.30;;;2.58;;
23358;SDS011;11851;50.796;4.372;2022-10-22T02:58:17;13.63;;;2.38;;
23358;SDS011;11851;50.796;4.372;2022-10-22T03:00:43;15.45;;;2.50;;
23358;SDS011;11851;50.796;4.372;2022-10-22T03:03:09;16.02;;;2.67;;
23358;SDS011;11851;50.796;4.372;2022-10-22T03:05:34;16.45;;;3.08;;
23358;SDS011;11851;50.796;4.372;2022-10-22T03:08:00;15.05;;;2.15;;
23358;SDS011;11851;50.796;4.372;2022-10-22T03:10:25;10.65;;;2.10;;
23358;SDS011;11851;50.796;4.372;2022-10-22T03:12:51;18.88;;;2.30;;
23358;SDS011;11851;50.796;4.372;2022-10-22T03:15:17;10.55;;;2.13;;
23358;SDS011;11851;50.796;4.372;2022-10-22T03:17:42;12.30;;;2.20;;
23358;SDS011;11851;50.796;4.372;2022-10-22T03:20:08;13.55;;;2.38;;
23358;SDS011;11851;50.796;4.372;2022-10-22T03:22:34;13.95;;;2.60;;
23358;SDS011;11851;50.796;4.372;2022-10-22T03:25:03;11.18;;;2.40;;
23358;SDS011;11851;50.796;4.372;2022-10-22T03:27:32;15.20;;;2.45;;
23358;SDS011;11851;50.796;4.372;2022-10-22T03:29:59;11.18;;;2.28;;
23358;SDS011;11851;50.796;4.372;2022-10-22T03:32:26;16.23;;;2.20;;
23358;SDS011;11851;50.796;4.372;2022-10-22T03:34:52;12.27;;;2.55;;
23358;SDS011;11851;50.796;4.372;2022-10-22T03:37:17;10.38;;;2.03;;
23358;SDS011;11851;50.796;4.372;2022-10-22T03:39:44;7.20;;;1.95;;
23358;SDS011;11851;50.796;4.372;2022-10-22T03:42:09;14.25;;;2.20;;
23358;SDS011;11851;50.796;4.372;2022-10-22T03:44:37;10.23;;;2.30;;
23358;SDS011;11851;50.796;4.372;2022-10-22T03:47:04;12.55;;;2.15;;
23358;SDS011;11851;50.796;4.372;2022-10-22T03:49:30;10.38;;;2.70;;
23358;SDS011;11851;50.796;4.372;2022-10-22T03:51:56;12.45;;;1.85;;
23358;SDS011;11851;50.796;4.372;2022-10-22T03:54:22;15.40;;;2.00;;
23358;SDS011;11851;50.796;4.372;2022-10-22T03:56:47;12.23;;;2.35;;
23358;SDS011;11851;50.796;4.372;2022-10-22T03:59:13;14.55;;;1.90;;
23358;SDS011;11851;50.796;4.372;2022-10-22T04:01:39;9.25;;;2.03;;
23358;SDS011;11851;50.796;4.372;2022-10-22T04:04:05;13.27;;;2.28;;
23358;SDS011;11851;50.796;4.372;2022-10-22T04:06:31;9.75;;;1.88;;
23358;SDS011;11851;50.796;4.372;2022-10-22T04:08:57;12.65;;;2.03;;
23358;SDS011;11851;50.796;4.372;2022-10-22T04:11:23;12.98;;;2.70;;
23358;SDS011;11851;50.796;4.372;2022-10-22T04:13:49;10.55;;;2.22;;
23358;SDS011;11851;50.796;4.372;2022-10-22T04:16:15;12.10;;;2.08;;
23358;SDS011;11851;50.796;4.372;2022-10-22T04:18:43;12.80;;;2.03;;
23358;SDS011;11851;50.796;4.372;2022-10-22T04:21:11;12.63;;;2.72;;
23358;SDS011;11851;50.796;4.372;2022-10-22T04:23:38;15.63;;;2.22;;
23358;SDS011;11851;50.796;4.372;2022-10-22T04:26:07;13.02;;;2.05;;
23358;SDS011;11851;50.796;4.372;2022-10-22T04:28:34;15.85;;;2.17;;
23358;SDS011;11851;50.796;4.372;2022-10-22T04:30:59;7.95;;;1.88;;
23358;SDS011;11851;50.796;4.372;2022-10-22T04:33:30;9.68;;;1.77;;
23358;SDS011;11851;50.796;4.372;2022-10-22T04:35:56;9.38;;;1.80;;
23358;SDS011;11851;50.796;4.372;2022-10-22T04:38:22;16.33;;;2.33;;
23358;SDS011;11851;50.796;4.372;2022-10-22T04:40:47;14.07;;;2.60;;
23358;SDS011;11851;50.796;4.372;2022-10-22T04:43:13;11.90;;;2.58;;
23358;SDS011;11851;50.796;4.372;2022-10-22T04:45:38;13.88;;;2.20;;
23358;SDS011;11851;50.796;4.372;2022-10-22T04:48:04;18.05;;;2.28;;
23358;SDS011;11851;50.796;4.372;2022-10-22T04:50:30;16.17;;;1.75;;
23358;SDS011;11851;50.796;4.372;2022-10-22T04:52:56;10.52;;;1.85;;
23358;SDS011;11851;50.796;4.372;2022-10-22T04:55:21;7.47;;;1.80;;
23358;SDS011;11851;50.796;4.372;2022-10-22T04:57:47;12.52;;;2.78;;
23358;SDS011;11851;50.796;4.372;2022-10-22T05:00:13;7.63;;;2.03;;
23358;SDS011;11851;50.796;4.372;2022-10-22T05:02:40;7.55;;;1.70;;
23358;SDS011;11851;50.796;4.372;2022-10-22T05:05:08;11.50;;;2.17;;
23358;SDS011;11851;50.796;4.372;2022-10-22T05:07:34;6.63;;;1.65;;
23358;SDS011;11851;50.796;4.372;2022-10-22T05:09:59;9.93;;;1.98;;
23358;SDS011;11851;50.796;4.372;2022-10-22T05:12:26;13.57;;;2.25;;
23358;SDS011;11851;50.796;4.372;2022-10-22T05:14:53;11.13;;;2.35;;
23358;SDS011;11851;50.796;4.372;2022-10-22T05:17:20;13.95;;;2.30;;
23358;SDS011;11851;50.796;4.372;2022-10-22T05:19:45;9.75;;;2.03;;
23358;SDS011;11851;50.796;4.372;2022-10-22T05:22:11;12.38;;;1.83;;
23358;SDS011;11851;50.796;4.372;2022-10-22T05:24:36;9.35;;;1.70;;
23358;SDS011;11851;50.796;4.372;2022-10-22T05:27:02;10.15;;;1.70;;
23358;SDS011;11851;50.796;4.372;2022-10-22T05:29:28;12.98;;;2.40;;
23358;SDS011;11851;50.796;4.372;2022-10-22T05:31:53;9.77;;;2.00;;
23358;SDS011;11851;50.796;4.372;2022-10-22T05:34:19;12.30;;;1.70;;
23358;SDS011;11851;50.796;4.372;2022-10-22T05:36:45;12.80;;;2.15;;
23358;SDS011;11851;50.796;4.372;2022-10-22T05:39:10;8.55;;;2.05;;
23358;SDS011;11851;50.796;4.372;2022-10-22T05:41:36;13.48;;;2.00;;
23358;SDS011;11851;50.796;4.372;2022-10-22T05:44:02;11.15;;;2.13;;
23358;SDS011;11851;50.796;4.372;2022-10-22T05:46:31;11.98;;;1.85;;
23358;SDS011;11851;50.796;4.372;2022-10-22T05:48:59;8.98;;;2.10;;
23358;SDS011;11851;50.796;4.372;2022-10-22T05:51:28;15.10;;;1.92;;
23358;SDS011;11851;50.796;4.372;2022-10-22T05:53:57;7.63;;;1.70;;
23358;SDS011;11851;50.796;4.372;2022-10-22T05:56:24;22.27;;;2.30;;
23358;SDS011;11851;50.796;4.372;2022-10-22T05:58:51;11.45;;;2.35;;
23358;SDS011;11851;50.796;4.372;2022-10-22T06:01:21;9.30;;;2.08;;
23358;SDS011;11851;50.796;4.372;2022-10-22T06:03:52;11.82;;;1.90;;
23358;SDS011;11851;50.796;4.372;2022-10-22T06:06:26;10.23;;;1.90;;
23358;SDS011;11851;50.796;4.372;2022-10-22T06:09:02;17.60;;;2.40;;
23358;SDS011;11851;50.796;4.372;2022-10-22T06:11:30;15.02;;;2.40;;
23358;SDS011;11851;50.796;4.372;2022-10-22T06:13:57;12.88;;;1.77;;
23358;SDS011;11851;50.796;4.372;2022-10-22T06:16:22;9.02;;;1.52;;
23358;SDS011;11851;50.796;4.372;2022-10-22T06:18:48;10.15;;;2.15;;
23358;SDS011;11851;50.796;4.372;2022-10-22T06:21:14;13.52;;;2.10;;
23358;SDS011;11851;50.796;4.372;2022-10-22T06:23:40;7.93;;;1.63;;
23358;SDS011;11851;50.796;4.372;2022-10-22T06:26:07;9.48;;;1.80;;
23358;SDS011;11851;50.796;4.372;2022-10-22T06:28:33;13.70;;;2.08;;
23358;SDS011;11851;50.796;4.372;2022-10-22T06:31:00;10.15;;;1.80;;
23358;SDS011;11851;50.796;4.372;2022-10-22T06:33:27;11.93;;;2.10;;
23358;SDS011;11851;50.796;4.372;2022-10-22T06:35:53;13.05;;;2.35;;
23358;SDS011;11851;50.796;4.372;2022-10-22T06:38:19;10.68;;;2.65;;
23358;SDS011;11851;50.796;4.372;2022-10-22T06:40:45;21.77;;;2.42;;
23358;SDS011;11851;50.796;4.372;2022-10-22T06:43:11;12.45;;;2.50;;
23358;SDS011;11851;50.796;4.372;2022-10-22T06:45:37;13.55;;;1.88;;
23358;SDS011;11851;50.796;4.372;2022-10-22T06:48:03;12.75;;;1.88;;
23358;SDS011;11851;50.796;4.372;2022-10-22T06:50:29;11.80;;;1.70;;
23358;SDS011;11851;50.796;4.372;2022-10-22T06:52:55;11.18;;;1.83;;
23358;SDS011;11851;50.796;4.372;2022-10-22T06:55:21;12.77;;;2.50;;
23358;SDS011;11851;50.796;4.372;2022-10-22T06:57:47;10.77;;;1.80;;
23358;SDS011;11851;50.796;4.372;2022-10-22T07:00:13;16.85;;;2.15;;
23358;SDS011;11851;50.796;4.372;2022-10-22T07:02:39;13.00;;;1.75;;
23358;SDS011;11851;50.796;4.372;2022-10-22T07:05:04;9.13;;;1.90;;
23358;SDS011;11851;50.796;4.372;2022-10-22T07:07:30;14.40;;;3.03;;
23358;SDS011;11851;50.796;4.372;2022-10-22T07:09:56;9.82;;;2.28;;
23358;SDS011;11851;50.796;4.372;2022-10-22T07:12:21;14.25;;;2.10;;
23358;SDS011;11851;50.796;4.372;2022-10-22T07:14:47;10.15;;;1.92;;
23358;SDS011;11851;50.796;4.372;2022-10-22T07:17:13;10.70;;;1.95;;
23358;SDS011;11851;50.796;4.372;2022-10-22T07:19:39;14.77;;;2.20;;
23358;SDS011;11851;50.796;4.372;2022-10-22T07:22:05;17.88;;;1.90;;
23358;SDS011;11851;50.796;4.372;2022-10-22T07:24:30;9.82;;;1.65;;
23358;SDS011;11851;50.796;4.372;2022-10-22T07:26:56;11.50;;;2.03;;
23358;SDS011;11851;50.796;4.372;2022-10-22T07:29:22;15.00;;;2.38;;
23358;SDS011;11851;50.796;4.372;2022-10-22T07:31:47;8.13;;;1.90;;
23358;SDS011;11851;50.796;4.372;2022-10-22T07:34:13;14.25;;;1.90;;
23358;SDS011;11851;50.796;4.372;2022-10-22T07:36:39;11.57;;;1.95;;
23358;SDS011;11851;50.796;4.372;2022-10-22T07:39:05;9.55;;;1.98;;
23358;SDS011;11851;50.796;4.372;2022-10-22T07:41:31;13.20;;;2.63;;
23358;SDS011;11851;50.796;4.372;2022-10-22T07:43:57;11.43;;;2.47;;
23358;SDS011;11851;50.796;4.372;2022-10-22T07:46:23;17.35;;;2.30;;
23358;SDS011;11851;50.796;4.372;2022-10-22T07:48:49;17.30;;;1.90;;
23358;SDS011;11851;50.796;4.372;2022-10-22T07:51:15;11.23;;;1.95;;
23358;SDS011;11851;50.796;4.372;2022-10-22T07:53:41;15.07;;;1.85;;
23358;SDS011;11851;50.796;4.372;2022-10-22T07:56:07;14.38;;;2.03;;
23358;SDS011;11851;50.796;4.372;2022-10-22T07:58:33;10.32;;;2.38;;
23358;SDS011;11851;50.796;4.372;2022-10-22T08:00:59;10.68;;;1.52;;
23358;SDS011;11851;50.796;4.372;2022-10-22T08:03:26;10.43;;;1.70;;
23358;SDS011;11851;50.796;4.372;2022-10-22T08:05:52;10.77;;;2.13;;
23358;SDS011;11851;50.796;4.372;2022-10-22T08:08:19;10.73;;;2.15;;
23358;SDS011;11851;50.796;4.372;2022-10-22T08:10:45;13.48;;;2.55;;
23358;SDS011;11851;50.796;4.372;2022-10-22T08:13:11;12.88;;;2.03;;
23358;SDS011;11851;50.796;4.372;2022-10-22T08:15:37;11.82;;;2.15;;
23358;SDS011;11851;50.796;4.372;2022-10-22T08:18:03;9.35;;;1.83;;
23358;SDS011;11851;50.796;4.372;2022-10-22T08:20:29;12.25;;;1.98;;
23358;SDS011;11851;50.796;4.372;2022-10-22T08:22:55;8.90;;;2.00;;
23358;SDS011;11851;50.796;4.372;2022-10-22T08:25:21;16.63;;;2.15;;
23358;SDS011;11851;50.796;4.372;2022-10-22T08:27:47;12.48;;;1.95;;
23358;SDS011;11851;50.796;4.372;2022-10-22T08:30:13;11.30;;;1.88;;
23358;SDS011;11851;50.796;4.372;2022-10-22T08:32:39;17.38;;;1.92;;
23358;SDS011;11851;50.796;4.372;2022-10-22T08:35:05;15.68;;;2.53;;
23358;SDS011;11851;50.796;4.372;2022-10-22T08:37:31;9.88;;;1.83;;
23358;SDS011;11851;50.796;4.372;2022-10-22T08:39:57;12.57;;;1.77;;
23358;SDS011;11851;50.796;4.372;2022-10-22T08:50:22;12.35;;;1.85;;
23358;SDS011;11851;50.796;4.372;2022-10-22T08:52:54;9.63;;;2.35;;
23358;SDS011;11851;50.796;4.372;2022-10-22T08:55:24;16.85;;;2.70;;
23358;SDS011;11851;50.796;4.372;2022-10-22T08:57:50;9.65;;;1.77;;
23358;SDS011;11851;50.796;4.372;2022-10-22T09:00:36;7.60;;;2.03;;
23358;SDS011;11851;50.796;4.372;2022-10-22T09:08:22;10.02;;;1.70;;
23358;SDS011;11851;50.796;4.372;2022-10-22T09:10:49;13.77;;;2.08;;
23358;SDS011;11851;50.796;4.372;2022-10-22T09:13:20;14.43;;;1.80;;
23358;SDS011;11851;50.796;4.372;2022-10-22T09:15:54;14.80;;;2.65;;
23358;SDS011;11851;50.796;4.372;2022-10-22T09:18:39;18.02;;;2.20;;
23358;SDS011;11851;50.796;4.372;2022-10-22T09:24:30;9.10;;;1.65;;
23358;SDS011;11851;50.796;4.372;2022-10-22T09:27:16;9.55;;;1.77;;
23358;SDS011;11851;50.796;4.372;2022-10-22T09:29:44;8.18;;;2.10;;
23358;SDS011;11851;50.796;4.372;2022-10-22T09:32:10;11.15;;;1.85;;
23358;SDS011;11851;50.796;4.372;2022-10-22T09:34:37;12.88;;;1.98;;
23358;SDS011;11851;50.796;4.372;2022-10-22T09:37:04;23.35;;;2.15;;
23358;SDS011;11851;50.796;4.372;2022-10-22T09:39:33;15.57;;;2.28;;
23358;SDS011;11851;50.796;4.372;2022-10-22T09:42:03;14.20;;;2.85;;
23358;SDS011;11851;50.796;4.372;2022-10-22T09:44:31;10.25;;;2.03;;
23358;SDS011;11851;50.796;4.372;2022-10-22T09:47:05;10.30;;;1.98;;
23358;SDS011;11851;50.796;4.372;2022-10-22T09:49:49;10.25;;;1.95;;
23358;SDS011;11851;50.796;4.372;2022-10-22T09:52:44;12.75;;;2.05;;
23358;SDS011;11851;50.796;4.372;2022-10-22T09:55:13;13.95;;;1.92;;
23358;SDS011;11851;50.796;4.372;2022-10-22T09:57:41;12.90;;;1.73;;
23358;SDS011;11851;50.796;4.372;2022-10-22T10:00:08;12.13;;;1.85;;
23358;SDS011;11851;50.796;4.372;2022-10-22T10:02:38;12.55;;;2.72;;
23358;SDS011;11851;50.796;4.372;2022-10-22T10:05:06;14.73;;;2.40;;
23358;SDS011;11851;50.796;4.372;2022-10-22T10:07:33;13.18;;;1.92;;
23358;SDS011;11851;50.796;4.372;2022-10-22T10:09:59;17.90;;;2.00;;
23358;SDS011;11851;50.796;4.372;2022-10-22T10:20:51;12.00;;;2.13;;
23358;SDS011;11851;50.796;4.372;2022-10-22T10:23:32;12.70;;;2.05;;
23358;SDS011;11851;50.796;4.372;2022-10-22T10:37:03;12.75;;;1.95;;
23358;SDS011;11851;50.796;4.372;2022-10-22T10:39:52;13.75;;;1.83;;
23358;SDS011;11851;50.796;4.372;2022-10-22T10:42:29;13.00;;;1.95;;
23358;SDS011;11851;50.796;4.372;2022-10-22T10:45:06;11.75;;;2.03;;
23358;SDS011;11851;50.796;4.372;2022-10-22T10:52:59;10.00;;;1.73;;
23358;SDS011;11851;50.796;4.372;2022-10-22T10:55:50;12.50;;;2.47;;
23358;SDS011;11851;50.796;4.372;2022-10-22T10:58:33;16.50;;;2.35;;
23358;SDS011;11851;50.796;4.372;2022-10-22T11:06:23;13.52;;;2.03;;
23358;SDS011;11851;50.796;4.372;2022-10-22T11:08:57;10.50;;;2.30;;
23358;SDS011;11851;50.796;4.372;2022-10-22T11:13:59;13.18;;;2.00;;
23358;SDS011;11851;50.796;4.372;2022-10-22T11:16:36;14.10;;;2.50;;
23358;SDS011;11851;50.796;4.372;2022-10-22T11:24:45;17.00;;;2.22;;
23358;SDS011;11851;50.796;4.372;2022-10-22T11:30:17;15.15;;;2.03;;
23358;SDS011;11851;50.796;4.372;2022-10-22T11:32:46;13.93;;;2.40;;
23358;SDS011;11851;50.796;4.372;2022-10-22T11:35:16;11.63;;;1.95;;
23358;SDS011;11851;50.796;4.372;2022-10-22T11:37:44;11.55;;;1.80;;
23358;SDS011;11851;50.796;4.372;2022-10-22T11:40:24;11.38;;;2.28;;
23358;SDS011;11851;50.796;4.372;2022-10-22T11:43:04;12.25;;;1.70;;
23358;SDS011;11851;50.796;4.372;2022-10-22T11:45:49;9.98;;;2.00;;
23358;SDS011;11851;50.796;4.372;2022-10-22T11:48:41;12.32;;;1.88;;
23358;SDS011;11851;50.796;4.372;2022-10-22T11:54:06;10.60;;;1.50;;
23358;SDS011;11851;50.796;4.372;2022-10-22T12:11:02;8.88;;;1.73;;
23358;SDS011;11851;50.796;4.372;2022-10-22T12:13:31;12.10;;;2.25;;
23358;SDS011;11851;50.796;4.372;2022-10-22T12:16:18;7.85;;;1.58;;
23358;SDS011;11851;50.796;4.372;2022-10-22T12:18:46;7.10;;;1.70;;
23358;SDS011;11851;50.796;4.372;2022-10-22T12:21:14;8.90;;;1.65;;
23358;SDS011;11851;50.796;4.372;2022-10-22T12:23:40;5.70;;;1.75;;
23358;SDS011;11851;50.796;4.372;2022-10-22T12:26:29;12.57;;;1.88;;
23358;SDS011;11851;50.796;4.372;2022-10-22T12:28:59;8.02;;;1.67;;
23358;SDS011;11851;50.796;4.372;2022-10-22T12:31:26;7.95;;;1.83;;
23358;SDS011;11851;50.796;4.372;2022-10-22T12:33:59;13.57;;;2.10;;
23358;SDS011;11851;50.796;4.372;2022-10-22T12:36:34;11.52;;;2.17;;
23358;SDS011;11851;50.796;4.372;2022-10-22T12:39:01;8.50;;;2.15;;
23358;SDS011;11851;50.796;4.372;2022-10-22T12:41:32;7.63;;;2.25;;
23358;SDS011;11851;50.796;4.372;2022-10-22T12:43:59;10.60;;;1.45;;
23358;SDS011;11851;50.796;4.372;2022-10-22T12:46:26;6.00;;;1.67;;
23358;SDS011;11851;50.796;4.372;2022-10-22T12:48:54;9.63;;;1.52;;
23358;SDS011;11851;50.796;4.372;2022-10-22T12:51:26;5.32;;;1.50;;
23358;SDS011;11851;50.796;4.372;2022-10-22T12:53:53;8.18;;;1.67;;
23358;SDS011;11851;50.796;4.372;2022-10-22T12:56:22;10.02;;;1.40;;
23358;SDS011;11851;50.796;4.372;2022-10-22T12:58:52;10.10;;;1.67;;
23358;SDS011;11851;50.796;4.372;2022-10-22T13:01:28;8.57;;;1.80;;
23358;SDS011;11851;50.796;4.372;2022-10-22T13:04:33;7.63;;;1.55;;
23358;SDS011;11851;50.796;4.372;2022-10-22T13:07:36;12.55;;;2.15;;
23358;SDS011;11851;50.796;4.372;2022-10-22T13:09:37;5.57;;;1.30;;
23358;SDS011;11851;50.796;4.372;2022-10-22T13:12:03;7.85;;;1.67;;
23358;SDS011;11851;50.796;4.372;2022-10-22T13:14:31;7.50;;;2.10;;
23358;SDS011;11851;50.796;4.372;2022-10-22T13:19:59;10.45;;;1.75;;
23358;SDS011;11851;50.796;4.372;2022-10-22T13:22:35;9.45;;;1.90;;
23358;SDS011;11851;50.796;4.372;2022-10-22T13:33:33;10.98;;;1.95;;
23358;SDS011;11851;50.796;4.372;2022-10-22T13:36:01;7.60;;;1.58;;
23358;SDS011;11851;50.796;4.372;2022-10-22T13:38:27;7.95;;;1.90;;
23358;SDS011;11851;50.796;4.372;2022-10-22T13:40:53;8.55;;;1.75;;
23358;SDS011;11851;50.796;4.372;2022-10-22T13:43:20;11.45;;;2.03;;
23358;SDS011;11851;50.796;4.372;2022-10-22T13:45:46;6.10;;;1.20;;
23358;SDS011;11851;50.796;4.372;2022-10-22T13:48:15;8.43;;;2.05;;
23358;SDS011;11851;50.796;4.372;2022-10-22T13:50:44;6.85;;;1.52;;
23358;SDS011;11851;50.796;4.372;2022-10-22T13:53:31;12.02;;;1.80;;
23358;SDS011;11851;50.796;4.372;2022-10-22T13:55:56;14.80;;;2.45;;
23358;SDS011;11851;50.796;4.372;2022-10-22T13:58:22;6.05;;;1.45;;
23358;SDS011;11851;50.796;4.372;2022-10-22T14:00:52;7.47;;;1.83;;
23358;SDS011;11851;50.796;4.372;2022-10-22T14:03:21;8.77;;;1.52;;
23358;SDS011;11851;50.796;4.372;2022-10-22T14:05:51;8.57;;;1.67;;
23358;SDS011;11851;50.796;4.372;2022-10-22T14:08:18;10.82;;;1.60;;
23358;SDS011;11851;50.796;4.372;2022-10-22T14:10:45;8.98;;;2.00;;
23358;SDS011;11851;50.796;4.372;2022-10-22T14:13:11;7.63;;;1.58;;
23358;SDS011;11851;50.796;4.372;2022-10-22T14:15:38;6.15;;;1.63;;
23358;SDS011;11851;50.796;4.372;2022-10-22T14:18:05;10.18;;;1.38;;
23358;SDS011;11851;50.796;4.372;2022-10-22T14:20:32;7.68;;;1.73;;
23358;SDS011;11851;50.796;4.372;2022-10-22T14:23:01;9.00;;;1.65;;
23358;SDS011;11851;50.796;4.372;2022-10-22T14:25:32;8.02;;;1.80;;
23358;SDS011;11851;50.796;4.372;2022-10-22T14:27:58;5.97;;;1.92;;
23358;SDS011;11851;50.796;4.372;2022-10-22T14:30:24;9.02;;;1.80;;
23358;SDS011;11851;50.796;4.372;2022-10-22T14:32:50;8.85;;;1.63;;
23358;SDS011;11851;50.796;4.372;2022-10-22T14:35:17;5.65;;;1.67;;
23358;SDS011;11851;50.796;4.372;2022-10-22T14:37:45;4.00;;;1.52;;
23358;SDS011;11851;50.796;4.372;2022-10-22T14:40:12;5.45;;;1.35;;
23358;SDS011;11851;50.796;4.372;2022-10-22T14:42:40;13.98;;;1.88;;
23358;SDS011;11851;50.796;4.372;2022-10-22T14:45:22;7.80;;;1.52;;
23358;SDS011;11851;50.796;4.372;2022-10-22T14:47:49;8.25;;;1.55;;
23358;SDS011;11851;50.796;4.372;2022-10-22T14:50:19;7.00;;;1.50;;
23358;SDS011;11851;50.796;4.372;2022-10-22T14:52:45;12.35;;;1.95;;
23358;SDS011;11851;50.796;4.372;2022-10-22T14:55:11;8.77;;;1.88;;
23358;SDS011;11851;50.796;4.372;2022-10-22T14:57:38;7.00;;;1.40;;
23358;SDS011;11851;50.796;4.372;2022-10-22T15:00:05;8.82;;;1.90;;
23358;SDS011;11851;50.796;4.372;2022-10-22T15:02:32;6.85;;;1.88;;
23358;SDS011;11851;50.796;4.372;2022-10-22T15:04:58;8.85;;;1.85;;
23358;SDS011;11851;50.796;4.372;2022-10-22T15:07:23;7.35;;;1.33;;
23358;SDS011;11851;50.796;4.372;2022-10-22T15:09:51;6.53;;;1.27;;
23358;SDS011;11851;50.796;4.372;2022-10-22T15:12:17;9.52;;;2.05;;
23358;SDS011;11851;50.796;4.372;2022-10-22T15:14:44;9.07;;;1.55;;
23358;SDS011;11851;50.796;4.372;2022-10-22T15:17:13;8.23;;;1.90;;
23358;SDS011;11851;50.796;4.372;2022-10-22T15:19:39;9.07;;;1.65;;
23358;SDS011;11851;50.796;4.372;2022-10-22T15:22:05;11.43;;;2.00;;
23358;SDS011;11851;50.796;4.372;2022-10-22T15:24:31;12.82;;;1.80;;
23358;SDS011;11851;50.796;4.372;2022-10-22T15:26:57;9.45;;;1.98;;
23358;SDS011;11851;50.796;4.372;2022-10-22T15:29:22;11.23;;;1.80;;
23358;SDS011;11851;50.796;4.372;2022-10-22T15:31:52;17.65;;;2.25;;
23358;SDS011;11851;50.796;4.372;2022-10-22T15:34:29;10.27;;;2.13;;
23358;SDS011;11851;50.796;4.372;2022-10-22T15:36:57;6.35;;;1.60;;
23358;SDS011;11851;50.796;4.372;2022-10-22T15:39:24;9.32;;;1.90;;
23358;SDS011;11851;50.796;4.372;2022-10-22T15:41:50;10.80;;;2.00;;
23358;SDS011;11851;50.796;4.372;2022-10-22T15:44:18;9.90;;;1.98;;
23358;SDS011;11851;50.796;4.372;2022-10-22T15:46:48;10.93;;;1.70;;
23358;SDS011;11851;50.796;4.372;2022-10-22T15:49:14;6.00;;;1.73;;
23358;SDS011;11851;50.796;4.372;2022-10-22T15:51:41;11.18;;;1.90;;
23358;SDS011;11851;50.796;4.372;2022-10-22T15:54:09;7.63;;;1.55;;
23358;SDS011;11851;50.796;4.372;2022-10-22T15:56:38;10.57;;;2.03;;
23358;SDS011;11851;50.796;4.372;2022-10-22T15:59:03;12.45;;;2.25;;
23358;SDS011;11851;50.796;4.372;2022-10-22T16:01:29;7.15;;;1.90;;
23358;SDS011;11851;50.796;4.372;2022-10-22T16:03:57;12.65;;;1.80;;
23358;SDS011;11851;50.796;4.372;2022-10-22T16:06:31;11.18;;;1.83;;
23358;SDS011;11851;50.796;4.372;2022-10-22T16:08:59;9.18;;;1.80;;
23358;SDS011;11851;50.796;4.372;2022-10-22T16:11:27;14.30;;;1.95;;
23358;SDS011;11851;50.796;4.372;2022-10-22T16:13:53;10.50;;;1.67;;
23358;SDS011;11851;50.796;4.372;2022-10-22T16:16:20;7.35;;;2.15;;
23358;SDS011;11851;50.796;4.372;2022-10-22T16:18:47;10.95;;;2.35;;
23358;SDS011;11851;50.796;4.372;2022-10-22T16:21:13;11.95;;;2.00;;
23358;SDS011;11851;50.796;4.372;2022-10-22T16:23:40;11.85;;;2.50;;
23358;SDS011;11851;50.796;4.372;2022-10-22T16:26:06;12.15;;;4.15;;
23358;SDS011;11851;50.796;4.372;2022-10-22T16:28:32;12.77;;;2.40;;
23358;SDS011;11851;50.796;4.372;2022-10-22T16:31:04;8.43;;;2.97;;
23358;SDS011;11851;50.796;4.372;2022-10-22T16:33:33;7.35;;;2.00;;
23358;SDS011;11851;50.796;4.372;2022-10-22T16:36:00;11.15;;;2.58;;
23358;SDS011;11851;50.796;4.372;2022-10-22T16:38:25;15.75;;;2.90;;
23358;SDS011;11851;50.796;4.372;2022-10-22T16:40:51;13.88;;;2.60;;